Bethune, CO (80805)

9:46 PM MDT on October 20, 2014 (GMT -0600)
KCOBURLI6 | Change Station
CLOSE
Current Station
Personal Weather Station
Location: Burlington, CO
Elevation: 4117 ft
Nearby Weather Stations

Elev 4117 ft 39.41 °N, 102.35 °W | Updated 5 minutes ago

Clear
Clear
54.8 °F
Feels Like 54.8 °F
N
4.0
Wind Variable Wind from WSW
Gusts 11.0 mph

Today
High -- | Low -- °F
--% Chance of Precip.
Yesterday
High -- | Low -- °F
Precip. -- in
7:04 AM 6:03 PM
Waning Crescent, 7% visible
Pressure 30.04 in
Visibility 10.0 miles
Clouds Clear
Dew Point 42 °F
Humidity 61%
Rainfall 0.00 in
Snow Depth Not available.
UV 0 out of 12
Pollen 2.50 out of 12
Air Quality Not available.
Flu Activity Sporadic
METAR KITR 210253Z AUTO 17010KT 10SM CLR 13/04 A3012 RMK AO2 SLP173 T01330039 53001

More Conditions Fewer Conditions

Pressure 30.04 in
Visibility 10.0 miles
Clouds Clear
Dew Point 42 °F
Humidity 61%
Rainfall 0.00 in
Snow Depth Not available.
UV 0 out of 12
Pollen 2.50 out of 12
Air Quality Not available.
Flu Activity Sporadic
METAR KITR 210253Z AUTO 17010KT 10SM CLR 13/04 A3012 RMK AO2 SLP173 T01330039 53001

More Conditions Fewer Conditions

10-Day Weather Forecast

Almanac

Astronomy

Oct. 20, 2014 Rise Set
Actual Time 7:04 AM MDT 6:03 PM MDT
Civil Twilight 6:37 AM MDT 6:30 PM MDT
Nautical Twilight 6:06 AM MDT 7:02 PM MDT
Astronomical Twilight 5:35 AM MDT 7:33 PM MDT
Moon 3:56 AM MDT (10/20) 4:26 PM MDT (10/20)
Length of Visible Light 11h 53m
Length of Day
10h 58m
Tomorrow will be 2m 25s shorter.
Waning Crescent, 7% of the Moon is Illuminated
Today
Waning Crescent
Oct 23
New
Oct 30
First Quarter
Nov 6
Full
Nov 14
Last Quarter

Today's Extremes

State Highs State Lows

Community

WunderPhotos

Upload Photos

1,763,594 photos uploaded!

Nearby

Snow Depth

Station Depth Elevation
Glen Cove 1 in 11460 ft
Copeland Lake 0 in 8600 ft
Wild Basin 0 in 9560 ft
Jackwhacker Gulch 0 in 10960 ft
Berthoud Summit 1 in 11300 ft

Earthquake Activity

City Distance Mag. Time & Date
No recent earthquake activity has been reported nearby.
Minimum magnitude displayed is 2.5.

Coastal Water Temperatures

Place Temperature
No Stations Reporting

Nearby Weather Stations